Portada
METAR-TAF:

METAR-TAF

Aeroports :

Kingaroy, Austràlia

latitud: 26-34-48S, longitud: 151-50-30E, altitud: 455 m

Observació

L'informe es va fer fa 1 hora i 18 minuts, a les 19:00 UTC
Vent 6 kt del Sud
Temperatura 16°C
Humitat 94%
Pressió 1016 hPa
Visibilitat: 9000 m
Núvols disperses a una alçada de 1100 ft
Cel cobert a una alçada de 2200 ft

METAR: YKRY 131900Z AUTO 17006KT 9000 // SCT011 OVC022 16/15 Q1016

Hora: 06:18 (20:18 UTC)


TAF: manca

Observacions i pronòstics meteorològics de més de 4000 aeroports (METAR i TAF).

Les estacions disponibles són els punts grocs i vermells al mapa.

Posi el ratolí al punt desitjat per veure el nom de l'estació.

Feu clic per veure les observacions i els pronòstics meteorològics.

Per canviar el mapa: feu clic els botons verds amb una creu de color negre per apropar; al botó verd amb un guió per allunyar la imatge; o en les fletxes verdes per a mapes adjacents.


METAR-TAF: